createdAt,value
2022-08-22T00:01:20.291Z,5.80
2022-08-22T00:02:52.802Z,4.50
2022-08-22T00:02:54.937Z,5.43
2022-08-22T00:04:25.121Z,5.95
2022-08-22T00:07:00.795Z,5.90
2022-08-22T00:09:57.377Z,5.80
2022-08-22T00:12:30.427Z,6.25
2022-08-22T00:15:42.108Z,5.50
2022-08-22T00:18:18.364Z,6.05
2022-08-22T00:21:23.337Z,5.72
2022-08-22T00:24:23.048Z,6.10
2022-08-22T00:26:56.063Z,6.35
2022-08-22T00:29:41.468Z,6.00
2022-08-22T00:32:23.080Z,5.78
2022-08-22T00:35:01.221Z,6.20
2022-08-22T00:37:34.912Z,6.03
2022-08-22T00:40:26.621Z,5.68
2022-08-22T00:43:02.246Z,6.43
2022-08-22T00:45:37.827Z,5.75
2022-08-22T00:48:22.203Z,6.13
2022-08-22T00:50:51.500Z,6.30
2022-08-22T00:53:18.062Z,6.03
2022-08-22T00:55:58.215Z,6.13
2022-08-22T00:58:45.625Z,6.05
2022-08-22T01:01:15.069Z,6.40
2022-08-22T01:03:44.402Z,6.05
2022-08-22T01:06:49.406Z,5.85
2022-08-22T01:09:33.977Z,6.25
2022-08-22T01:12:11.737Z,6.30
2022-08-22T01:14:49.308Z,5.85
2022-08-22T01:17:31.945Z,6.60
2022-08-22T01:20:43.470Z,6.53
2022-08-22T01:23:18.954Z,6.82
2022-08-22T01:26:14.636Z,6.38
2022-08-22T01:29:09.478Z,6.60
2022-08-22T01:31:58.833Z,6.53
2022-08-22T01:35:10.335Z,6.47
2022-08-22T01:38:10.253Z,6.57
2022-08-22T01:41:02.984Z,7.10
2022-08-22T01:43:59.832Z,6.70
2022-08-22T01:46:39.607Z,7.55
2022-08-22T01:49:20.080Z,7.03
2022-08-22T01:51:53.726Z,6.95
2022-08-22T01:54:54.720Z,7.05
2022-08-22T01:57:24.008Z,7.40
2022-08-22T01:59:54.117Z,6.47
2022-08-22T02:02:43.916Z,7.05
2022-08-22T02:05:26.170Z,6.82
2022-08-22T02:08:05.303Z,6.38
2022-08-22T02:10:54.328Z,8.02
2022-08-22T02:14:01.733Z,6.75
2022-08-22T02:16:31.120Z,7.10
2022-08-22T02:19:15.852Z,6.65
2022-08-22T02:21:54.089Z,6.25
2022-08-22T02:24:26.262Z,6.50
2022-08-22T02:27:23.915Z,6.28
2022-08-22T02:30:06.460Z,6.93
2022-08-22T02:32:43.615Z,6.60
2022-08-22T02:35:39.467Z,7.40
2022-08-22T02:38:19.475Z,6.75
2022-08-22T02:41:09.347Z,6.32
2022-08-22T02:43:46.615Z,6.70
2022-08-22T02:46:22.510Z,6.60
2022-08-22T02:49:11.962Z,7.00
2022-08-22T02:51:50.559Z,7.53
2022-08-22T02:54:35.767Z,7.45
2022-08-22T02:57:19.040Z,7.10
2022-08-22T03:00:35.766Z,7.32
2022-08-22T03:03:16.291Z,6.53
2022-08-22T03:05:45.690Z,6.88
2022-08-22T03:08:50.859Z,6.03
2022-08-22T03:11:28.832Z,6.80
2022-08-22T03:14:20.139Z,6.97
2022-08-22T03:17:06.064Z,6.88
2022-08-22T03:22:45.859Z,6.72
2022-08-22T03:25:38.978Z,7.22
2022-08-22T03:28:14.406Z,7.30
2022-08-22T03:31:12.918Z,6.38
2022-08-22T03:33:40.295Z,6.30
2022-08-22T03:36:28.324Z,6.93
2022-08-22T03:39:08.825Z,6.72
2022-08-22T03:41:50.034Z,6.70
2022-08-22T03:44:41.416Z,7.10
2022-08-22T03:47:31.726Z,7.82
2022-08-22T03:50:24.078Z,7.38
2022-08-22T03:53:18.602Z,7.35
2022-08-22T03:56:20.292Z,7.03
2022-08-22T03:59:00.747Z,6.88
2022-08-22T04:01:40.499Z,7.20
2022-08-22T04:04:25.648Z,8.20
2022-08-22T04:07:33.434Z,7.80
2022-08-22T04:10:03.231Z,7.50
2022-08-22T04:12:45.765Z,7.57
2022-08-22T04:15:31.170Z,7.60
2022-08-22T04:18:30.277Z,8.00
2022-08-22T04:21:19.266Z,7.60
2022-08-22T04:24:24.271Z,6.80
2022-08-22T04:26:56.417Z,6.57
2022-08-22T04:29:36.621Z,7.60
2022-08-22T04:32:18.190Z,7.00
2022-08-22T04:34:57.615Z,7.60
2022-08-22T04:37:37.571Z,7.05
2022-08-22T04:40:28.623Z,7.65
2022-08-22T04:43:16.884Z,7.25
2022-08-22T04:46:05.139Z,7.15
2022-08-22T04:48:37.633Z,7.95
2022-08-22T04:51:04.221Z,8.15
2022-08-22T04:53:55.992Z,7.95
2022-08-22T04:56:41.327Z,7.60
2022-08-22T04:59:12.217Z,7.60
2022-08-22T05:01:57.119Z,7.43
2022-08-22T05:04:26.819Z,7.40
2022-08-22T05:07:02.453Z,7.70
2022-08-22T05:09:33.300Z,7.20
2022-08-22T05:12:06.576Z,6.25
2022-08-22T05:14:42.545Z,6.57
2022-08-22T05:17:15.583Z,6.38
2022-08-22T05:19:50.757Z,6.65
2022-08-22T05:22:46.520Z,6.70
2022-08-22T05:25:20.399Z,6.45
2022-08-22T05:27:56.367Z,6.43
2022-08-22T05:30:28.361Z,6.95
2022-08-22T05:33:04.361Z,6.50
2022-08-22T05:35:59.238Z,5.70
2022-08-22T05:38:30.874Z,5.82
2022-08-22T05:41:07.202Z,5.80
2022-08-22T05:43:38.793Z,5.85
2022-08-22T05:46:10.232Z,6.18
2022-08-22T05:48:43.750Z,6.00
2022-08-22T05:51:21.391Z,5.85
2022-08-22T05:54:14.124Z,6.10
2022-08-22T05:56:52.804Z,5.95
2022-08-22T05:59:33.824Z,6.07
2022-08-22T06:02:03.077Z,6.05
2022-08-22T06:05:00.881Z,6.50
2022-08-22T06:07:33.866Z,6.18
2022-08-22T06:10:03.325Z,6.75
2022-08-22T06:12:51.036Z,6.60
2022-08-22T06:15:23.089Z,6.18
2022-08-22T06:17:59.883Z,6.28
2022-08-22T06:20:42.347Z,6.60
2022-08-22T06:23:14.675Z,6.47
2022-08-22T06:25:46.904Z,6.17
2022-08-22T06:28:19.213Z,6.80
2022-08-22T06:30:48.559Z,6.43
2022-08-22T06:33:21.730Z,6.20
2022-08-22T06:36:16.259Z,6.72
2022-08-22T06:38:55.584Z,6.18
2022-08-22T06:41:27.750Z,6.47
2022-08-22T06:43:55.674Z,6.87
2022-08-22T06:46:25.157Z,7.10
2022-08-22T06:48:55.681Z,7.38
2022-08-22T06:51:25.760Z,7.00
2022-08-22T06:53:56.842Z,7.13
2022-08-22T06:56:26.473Z,6.65
2022-08-22T06:58:58.716Z,6.53
2022-08-22T07:01:29.869Z,6.82
2022-08-22T07:04:06.077Z,6.90
2022-08-22T07:06:42.580Z,6.40
2022-08-22T07:09:26.245Z,6.45
2022-08-22T07:11:56.491Z,6.13
2022-08-22T07:14:31.460Z,6.20
2022-08-22T07:17:01.883Z,6.35
2022-08-22T07:19:41.535Z,5.95
2022-08-22T07:22:21.352Z,5.90
2022-08-22T07:24:53.455Z,5.70
2022-08-22T07:27:37.744Z,5.53
2022-08-22T07:30:10.280Z,6.00
2022-08-22T07:33:25.927Z,5.30
2022-08-22T07:35:55.437Z,4.95
2022-08-22T07:38:42.874Z,5.10
2022-08-22T07:41:21.316Z,4.80
2022-08-22T07:44:18.374Z,4.63
2022-08-22T07:47:03.355Z,4.40
2022-08-22T07:49:38.498Z,4.32
2022-08-22T07:52:08.965Z,4.40
2022-08-22T07:54:47.014Z,3.90
2022-08-22T07:57:32.852Z,3.97
2022-08-22T08:00:01.796Z,4.47
2022-08-22T08:02:45.339Z,3.83
2022-08-22T08:05:13.714Z,3.50
2022-08-22T08:07:46.276Z,3.90
2022-08-22T08:10:19.329Z,3.67
2022-08-22T08:12:57.946Z,3.33
2022-08-22T08:15:32.138Z,3.50
2022-08-22T08:18:03.835Z,3.05
2022-08-22T08:20:34.053Z,3.30
2022-08-22T08:23:09.960Z,3.40
2022-08-22T08:25:53.999Z,3.03
2022-08-22T08:28:34.241Z,3.20
2022-08-22T08:31:08.694Z,2.65
2022-08-22T08:33:40.181Z,2.85
2022-08-22T08:36:16.481Z,3.15
2022-08-22T08:38:49.098Z,3.00
2022-08-22T08:41:32.810Z,3.08
2022-08-22T08:44:18.956Z,2.38
2022-08-22T08:47:28.154Z,2.70
2022-08-22T08:49:54.752Z,2.90
2022-08-22T08:52:28.558Z,2.50
2022-08-22T08:55:19.746Z,2.30
2022-08-22T08:58:10.738Z,2.47
2022-08-22T09:00:52.257Z,2.60
2022-08-22T09:03:49.010Z,2.58
2022-08-22T09:06:30.830Z,2.47
2022-08-22T09:09:18.461Z,2.50
2022-08-22T09:12:05.057Z,2.50
2022-08-22T09:15:11.807Z,2.28
2022-08-22T09:18:06.782Z,2.72
2022-08-22T09:29:28.955Z,2.60
2022-08-22T09:32:01.523Z,2.72
2022-08-22T09:34:45.786Z,2.58
2022-08-22T09:37:50.067Z,2.30
2022-08-22T09:40:30.330Z,2.60
2022-08-22T09:43:11.038Z,2.40
2022-08-22T09:45:43.024Z,2.40
2022-08-22T09:48:30.594Z,2.22
2022-08-22T09:51:13.496Z,2.83
2022-08-22T09:54:23.075Z,3.40
2022-08-22T09:56:52.587Z,2.42
2022-08-22T09:59:28.643Z,2.67
2022-08-22T10:02:15.793Z,2.40
2022-08-22T10:05:41.100Z,2.50
2022-08-22T10:08:26.533Z,2.40
2022-08-22T10:10:59.156Z,2.40
2022-08-22T10:13:45.333Z,2.40
2022-08-22T10:16:21.043Z,2.38
2022-08-22T10:19:11.827Z,2.40
2022-08-22T10:22:10.510Z,2.58
2022-08-22T10:24:47.146Z,2.58
2022-08-22T10:27:21.161Z,2.20
2022-08-22T10:30:04.093Z,2.50
2022-08-22T10:32:39.902Z,2.30
2022-08-22T10:35:25.461Z,2.40
2022-08-22T10:38:00.559Z,2.35
2022-08-22T10:40:46.969Z,2.47
2022-08-22T10:43:28.886Z,2.28
2022-08-22T10:46:06.766Z,2.30
2022-08-22T10:51:25.379Z,2.40
2022-08-22T10:54:32.747Z,2.55
2022-08-22T10:57:22.579Z,2.30
2022-08-22T11:00:12.300Z,2.40
2022-08-22T11:02:54.903Z,2.30
2022-08-22T11:05:34.278Z,2.20
2022-08-22T11:08:21.230Z,2.42
2022-08-22T11:11:09.155Z,2.40
2022-08-22T11:13:57.003Z,2.30
2022-08-22T11:16:41.738Z,2.30
2022-08-22T11:19:26.865Z,2.30
2022-08-22T11:21:59.298Z,2.30
2022-08-22T11:24:35.371Z,2.40
2022-08-22T11:27:20.834Z,2.40
2022-08-22T11:30:19.048Z,2.30
2022-08-22T11:33:30.774Z,2.58
2022-08-22T11:36:34.719Z,2.50
2022-08-22T11:39:06.561Z,2.40
2022-08-22T11:42:06.472Z,2.40
2022-08-22T11:44:50.023Z,2.55
2022-08-22T11:47:26.518Z,2.55
2022-08-22T11:49:55.615Z,2.22
2022-08-22T11:52:34.169Z,2.35
2022-08-22T11:55:32.753Z,2.20
2022-08-22T11:58:13.744Z,2.38
2022-08-22T12:00:50.793Z,2.40
2022-08-22T12:03:43.306Z,2.30
2022-08-22T12:06:41.716Z,2.53
2022-08-22T12:09:47.649Z,2.40
2022-08-22T12:12:20.532Z,2.42
2022-08-22T12:15:11.208Z,2.53
2022-08-22T12:18:07.204Z,2.42
2022-08-22T12:20:36.777Z,2.40
2022-08-22T12:23:48.729Z,2.13
2022-08-22T12:26:35.421Z,2.10
2022-08-22T12:29:23.316Z,2.50
2022-08-22T12:32:28.369Z,2.35
2022-08-22T12:34:59.315Z,2.40
2022-08-22T12:37:29.364Z,2.60
2022-08-22T12:40:18.620Z,2.28
2022-08-22T12:43:16.076Z,2.03
2022-08-22T12:46:13.094Z,2.20
2022-08-22T12:49:10.811Z,2.20
2022-08-22T12:51:40.213Z,2.20
2022-08-22T12:54:40.251Z,2.20
2022-08-22T12:57:23.988Z,2.10
2022-08-22T13:00:03.837Z,1.88
2022-08-22T13:02:35.532Z,2.00
2022-08-22T13:05:20.048Z,2.20
2022-08-22T13:07:54.398Z,2.10
2022-08-22T13:10:41.734Z,2.08
2022-08-22T13:13:12.280Z,2.20
2022-08-22T13:16:01.369Z,2.10
2022-08-22T13:18:37.043Z,2.10
2022-08-22T13:21:06.528Z,1.90
2022-08-22T13:23:42.007Z,2.00
2022-08-22T13:26:34.435Z,1.90
2022-08-22T13:32:00.411Z,2.00
2022-08-22T13:34:43.692Z,2.10
2022-08-22T13:37:20.162Z,2.10
2022-08-22T13:39:55.798Z,2.17
2022-08-22T13:42:30.031Z,1.95
2022-08-22T13:45:02.686Z,2.20
2022-08-22T13:47:34.718Z,2.00
2022-08-22T13:50:14.776Z,2.00
2022-08-22T13:52:52.566Z,2.00
2022-08-22T13:55:29.521Z,2.00
2022-08-22T13:58:01.573Z,2.10
2022-08-22T14:01:05.992Z,2.20
2022-08-22T14:03:40.936Z,2.00
2022-08-22T14:06:35.550Z,2.20
2022-08-22T14:09:33.343Z,2.03
2022-08-22T14:12:13.800Z,1.88
2022-08-22T14:14:46.084Z,2.00
2022-08-22T14:17:26.089Z,2.05
2022-08-22T14:20:01.510Z,2.10
2022-08-22T14:22:35.462Z,1.90
2022-08-22T14:25:23.511Z,2.10
2022-08-22T14:27:57.986Z,2.00
2022-08-22T14:30:32.112Z,1.88
2022-08-22T14:33:14.272Z,2.00
2022-08-22T14:35:52.709Z,1.63
2022-08-22T14:38:36.627Z,1.90
2022-08-22T14:41:55.632Z,1.90
2022-08-22T14:44:23.395Z,2.08
2022-08-22T14:47:00.472Z,2.00
2022-08-22T14:49:38.231Z,1.85
2022-08-22T14:52:19.811Z,2.08
2022-08-22T14:54:47.144Z,2.00
2022-08-22T14:57:20.506Z,1.92
2022-08-22T14:59:51.400Z,1.90
2022-08-22T15:02:32.702Z,1.70
2022-08-22T15:05:14.191Z,1.80
2022-08-22T15:07:41.460Z,1.80
2022-08-22T15:10:42.187Z,1.77
2022-08-22T15:13:10.821Z,2.03
2022-08-22T15:15:53.558Z,1.75
2022-08-22T15:18:27.380Z,1.73
2022-08-22T15:21:10.374Z,1.60
2022-08-22T15:23:45.420Z,1.65
2022-08-22T15:26:40.932Z,1.80
2022-08-22T15:29:30.978Z,1.77
2022-08-22T15:32:01.921Z,1.70
2022-08-22T15:34:42.892Z,1.77
2022-08-22T15:37:16.421Z,1.90
2022-08-22T15:42:45.222Z,1.80
2022-08-22T15:45:20.716Z,1.90
2022-08-22T15:47:52.278Z,1.95
2022-08-22T15:50:55.698Z,1.70
2022-08-22T15:53:27.750Z,1.75
2022-08-22T15:56:05.071Z,1.80
2022-08-22T15:58:37.111Z,1.70
2022-08-22T16:01:56.460Z,1.65
2022-08-22T16:04:43.468Z,2.20
2022-08-22T16:11:33.469Z,2.20
2022-08-22T16:14:44.600Z,2.00
2022-08-22T16:21:22.827Z,2.13
2022-08-22T16:24:00.719Z,2.20
2022-08-22T16:26:30.276Z,2.10
2022-08-22T16:28:58.928Z,2.20
2022-08-22T16:31:31.368Z,2.10
2022-08-22T16:34:16.365Z,2.13
2022-08-22T16:37:23.262Z,1.85
2022-08-22T16:40:07.286Z,2.00
2022-08-22T16:42:37.895Z,2.10
2022-08-22T16:45:05.452Z,2.22
2022-08-22T16:47:32.699Z,2.10
2022-08-22T16:50:22.633Z,1.75
2022-08-22T16:52:59.496Z,2.10
2022-08-22T16:55:29.346Z,2.08
2022-08-22T16:58:06.846Z,2.83
2022-08-22T17:00:36.847Z,2.90
2022-08-22T17:03:18.556Z,2.30
2022-08-22T17:06:14.026Z,2.30
2022-08-22T17:09:17.964Z,2.10
2022-08-22T17:12:03.176Z,2.13
2022-08-22T17:14:48.335Z,2.03
2022-08-22T17:17:27.129Z,2.15
2022-08-22T17:20:20.118Z,1.92
2022-08-22T17:23:08.623Z,1.70
2022-08-22T17:26:29.360Z,1.90
2022-08-22T17:29:20.251Z,2.10
2022-08-22T17:31:55.289Z,1.95
2022-08-22T17:34:24.593Z,1.85
2022-08-22T17:37:03.341Z,1.98
2022-08-22T17:40:00.520Z,2.10
2022-08-22T17:42:38.252Z,1.95
2022-08-22T17:45:32.460Z,2.00
2022-08-22T17:48:20.331Z,2.00
2022-08-22T17:50:54.927Z,1.90
2022-08-22T17:53:36.657Z,2.30
2022-08-22T17:56:07.181Z,1.90
2022-08-22T17:58:44.369Z,1.98
2022-08-22T18:02:22.651Z,2.17
2022-08-22T18:05:01.609Z,2.00
2022-08-22T18:07:55.161Z,2.22
2022-08-22T18:10:38.263Z,1.80
2022-08-22T18:13:11.725Z,1.88
2022-08-22T18:15:52.982Z,2.03
2022-08-22T18:18:33.380Z,1.77
2022-08-22T18:21:25.843Z,2.00
2022-08-22T18:23:59.424Z,1.80
2022-08-22T18:26:28.929Z,2.28
2022-08-22T18:29:05.452Z,1.90
2022-08-22T18:31:38.262Z,1.90
2022-08-22T18:34:15.747Z,1.90
2022-08-22T18:36:58.094Z,2.10
2022-08-22T18:39:52.507Z,2.13
2022-08-22T18:42:28.115Z,1.90
2022-08-22T18:44:54.955Z,1.90
2022-08-22T18:47:32.586Z,1.80
2022-08-22T18:50:02.295Z,2.00
2022-08-22T18:52:28.952Z,1.70
2022-08-22T18:55:16.127Z,1.90
2022-08-22T18:58:25.038Z,1.80
2022-08-22T19:01:09.003Z,1.73
2022-08-22T19:04:00.488Z,1.88
2022-08-22T19:07:00.662Z,1.73
2022-08-22T19:09:56.629Z,1.90
2022-08-22T19:12:41.947Z,1.80
2022-08-22T19:15:15.611Z,1.60
2022-08-22T19:18:08.902Z,1.90
2022-08-22T19:20:57.676Z,1.70
2022-08-22T19:23:40.685Z,1.63
2022-08-22T19:26:34.803Z,1.80
2022-08-22T19:29:10.730Z,1.70
2022-08-22T19:31:41.864Z,1.83
2022-08-22T19:34:14.307Z,1.80
2022-08-22T19:36:41.874Z,1.70
2022-08-22T19:39:32.467Z,1.80
2022-08-22T19:41:59.574Z,1.90
2022-08-22T19:44:26.152Z,1.80
2022-08-22T19:47:39.360Z,1.88
2022-08-22T19:50:08.865Z,2.00
2022-08-22T19:52:54.192Z,1.92
2022-08-22T20:00:04.066Z,1.85
2022-08-22T20:02:59.445Z,1.85
2022-08-22T20:05:30.828Z,1.95
2022-08-22T20:08:03.136Z,2.00
2022-08-22T20:10:50.916Z,1.83
2022-08-22T20:13:25.509Z,2.05
2022-08-22T20:16:16.801Z,1.88
2022-08-22T20:19:07.413Z,1.90
2022-08-22T20:22:00.684Z,2.00
2022-08-22T20:24:39.740Z,2.10
2022-08-22T20:27:15.583Z,2.10
2022-08-22T20:29:51.828Z,2.30
2022-08-22T20:32:21.446Z,2.40
2022-08-22T20:34:53.559Z,2.40
2022-08-22T20:37:50.669Z,2.30
2022-08-22T20:40:55.572Z,2.40
2022-08-22T20:43:39.216Z,2.25
2022-08-22T20:46:21.263Z,2.50
2022-08-22T20:48:55.286Z,2.42
2022-08-22T20:51:25.082Z,2.50
2022-08-22T20:54:10.042Z,2.38
2022-08-22T20:56:53.609Z,2.90
2022-08-22T20:59:27.431Z,2.80
2022-08-22T21:05:04.679Z,2.72
2022-08-22T21:07:44.196Z,3.00
2022-08-22T21:10:35.385Z,2.60
2022-08-22T21:13:09.045Z,2.47
2022-08-22T21:15:39.564Z,2.58
2022-08-22T21:18:06.514Z,2.65
2022-08-22T21:20:36.507Z,2.58
2022-08-22T21:23:06.037Z,2.53
2022-08-22T21:25:33.268Z,2.40
2022-08-22T21:28:00.830Z,2.55
2022-08-22T21:30:29.169Z,2.50
2022-08-22T21:32:56.695Z,2.45
2022-08-22T21:35:28.187Z,2.25
2022-08-22T21:37:55.928Z,2.60
2022-08-22T21:40:39.514Z,2.40
2022-08-22T21:43:11.545Z,2.60
2022-08-22T21:45:38.223Z,2.40
2022-08-22T21:48:50.282Z,2.40
2022-08-22T21:51:38.817Z,2.63
2022-08-22T21:54:31.227Z,2.50
2022-08-22T21:57:09.780Z,2.30
2022-08-22T21:59:51.773Z,2.50
2022-08-22T22:02:28.419Z,2.50
2022-08-22T22:04:57.547Z,2.40
2022-08-22T22:07:25.694Z,3.03
2022-08-22T22:09:54.562Z,3.60
2022-08-22T22:12:21.966Z,3.00
2022-08-22T22:14:49.461Z,2.90
2022-08-22T22:17:18.238Z,2.80
2022-08-22T22:19:45.859Z,2.90
2022-08-22T22:22:12.553Z,3.03
2022-08-22T22:24:39.114Z,2.83
2022-08-22T22:27:06.310Z,2.95
2022-08-22T22:29:34.290Z,2.75
2022-08-22T22:32:00.891Z,2.90
2022-08-22T22:34:27.578Z,2.92
2022-08-22T22:36:54.700Z,2.70
2022-08-22T22:39:21.373Z,3.10
2022-08-22T22:41:49.046Z,3.10
2022-08-22T22:44:15.678Z,2.78
2022-08-22T22:46:42.314Z,2.97
2022-08-22T22:49:08.958Z,3.13
2022-08-22T22:51:35.522Z,3.30
2022-08-22T22:54:02.310Z,3.38
2022-08-22T22:56:29.323Z,3.20
2022-08-22T22:58:59.310Z,3.00
2022-08-22T23:02:00.538Z,3.10
2022-08-22T23:04:27.872Z,2.90
2022-08-22T23:06:54.463Z,3.20
2022-08-22T23:09:21.053Z,3.30
2022-08-22T23:11:54.979Z,3.40
2022-08-22T23:14:21.579Z,3.50
2022-08-22T23:16:48.132Z,3.60
2022-08-22T23:19:17.149Z,3.17
2022-08-22T23:21:45.820Z,3.30
2022-08-22T23:24:13.671Z,3.25
2022-08-22T23:26:40.880Z,3.25
2022-08-22T23:29:07.921Z,3.25
2022-08-22T23:31:40.192Z,3.25
2022-08-22T23:34:19.256Z,3.40
2022-08-22T23:36:47.106Z,3.35
2022-08-22T23:39:17.060Z,3.40
2022-08-22T23:41:45.340Z,3.50
2022-08-22T23:44:15.781Z,3.40
2022-08-22T23:46:43.178Z,3.40
2022-08-22T23:49:12.551Z,3.40
2022-08-22T23:51:40.997Z,3.38
2022-08-22T23:54:08.265Z,3.25
2022-08-22T23:56:46.292Z,3.72
2022-08-22T23:59:19.885Z,3.67
